LFST/SXB METAR and TAF weather

Enter ICAO airport designator
Station Type Date Time Source
LFST METAR 2021/09/27 06:30 UTC NOAA

LFST 270630Z AUTO 23005KT 8000 NSC 15/13 Q1018 NOSIG


Station Type Date Time Source
LFST Decoded METAR 2021/09/27 06:30 UTC NOAA

Strasbourg, France (LFST) 48-33N 007-38E 154M
Sep 27, 2021 - 02:30 AM EDT / 2021.09.27 0630 UTC
Wind: from the SW (230 degrees) at 6 MPH (5 KT):0
Visibility: 4 mile(s):0
Temperature: 59 F (15 C)
Dew Point: 55 F (13 C)
Relative Humidity: 87%
Pressure (altimeter): 30.06 in. Hg (1018 hPa)
ob: LFST 270630Z AUTO 23005KT 8000 NSC 15/13 Q1018 NOSIG
cycle: 6

Station Type Date Time Source
LFST TAF 2021/09/27 06:21 UTC NOAA

TAF LFST 270500Z 2706/2806 21004KT 8000 FEW040 PROB30
TEMPO 2706/2707 3000 BR
TEMPO 2721/2724 30010G20KT -RA

Example: see airport list